createdAt,value
2022-12-25T00:00:54.055Z,94971.25
2022-12-25T00:02:56.131Z,94967.66
2022-12-25T00:04:57.991Z,94975.94
2022-12-25T00:06:59.855Z,94976.38
2022-12-25T00:09:01.589Z,94983.13
2022-12-25T00:11:06.636Z,94983.44
2022-12-25T00:13:08.338Z,94982.06
2022-12-25T00:15:10.335Z,94996.13
2022-12-25T00:17:12.115Z,94995.19
2022-12-25T00:19:13.916Z,94995.88
2022-12-25T00:21:16.024Z,94988.59
2022-12-25T00:23:17.712Z,94993.13
2022-12-25T00:25:19.374Z,94987.78
2022-12-25T00:27:21.048Z,94993.97
2022-12-25T00:29:22.905Z,94996.16
2022-12-25T00:31:25.390Z,94997.28
2022-12-25T00:33:27.264Z,94992.75
2022-12-25T00:35:28.937Z,95001.94
2022-12-25T00:37:30.649Z,94993.44
2022-12-25T00:39:32.706Z,94996.16
2022-12-25T00:41:53.041Z,95003.44
2022-12-25T00:43:54.740Z,95007.72
2022-12-25T00:46:01.843Z,95004.56
2022-12-25T00:48:03.851Z,95010.34
2022-12-25T00:50:06.723Z,95007.16
2022-12-25T00:52:08.942Z,95006.88
2022-12-25T00:54:11.142Z,95013.59
2022-12-25T00:56:12.831Z,95015.66
2022-12-25T00:58:14.509Z,95009.88
2022-12-25T01:00:16.609Z,95016.63
2022-12-25T01:02:24.069Z,95025.16
2022-12-25T01:04:25.809Z,95015.94
2022-12-25T01:06:27.862Z,95008.63
2022-12-25T01:08:31.135Z,95006.56
2022-12-25T01:10:32.925Z,95011.41
2022-12-25T01:12:36.562Z,95009.88
2022-12-25T01:14:38.418Z,95008.25
2022-12-25T01:16:40.255Z,95015.13
2022-12-25T01:18:43.432Z,95015.81
2022-12-25T01:20:45.391Z,95012.94
2022-12-25T01:22:47.537Z,95015.13
2022-12-25T01:24:49.262Z,95014.88
2022-12-25T01:26:50.925Z,95017.34
2022-12-25T01:28:53.917Z,95014.31
2022-12-25T01:30:55.641Z,95014.88
2022-12-25T01:32:57.697Z,95021.72
2022-12-25T01:34:59.434Z,95013.50
2022-12-25T01:37:01.850Z,95011.56
2022-12-25T01:39:04.573Z,95015.44
2022-12-25T01:41:06.445Z,95011.84
2022-12-25T01:43:34.316Z,95016.38
2022-12-25T01:45:42.748Z,95023.13
2022-12-25T01:47:44.548Z,95016.81
2022-12-25T01:49:48.936Z,95015.72
2022-12-25T01:52:00.484Z,95016.28
2022-12-25T01:54:05.660Z,95009.66
2022-12-25T01:56:08.634Z,95003.50
2022-12-25T01:58:10.440Z,95021.34
2022-12-25T02:00:12.829Z,95011.03
2022-12-25T02:02:14.865Z,95012.16
2022-12-25T02:04:38.951Z,95020.94
2022-12-25T02:06:41.769Z,95023.53
2022-12-25T02:08:43.823Z,95022.72
2022-12-25T02:10:45.848Z,95018.88
2022-12-25T02:12:48.521Z,95027.50
2022-12-25T02:14:51.738Z,95023.41
2022-12-25T02:17:02.458Z,95030.31
2022-12-25T02:19:11.686Z,95028.19
2022-12-25T02:21:41.223Z,95021.72
2022-12-25T02:23:58.131Z,95023.13
2022-12-25T02:26:23.126Z,95022.56
2022-12-25T02:28:41.075Z,95022.97
2022-12-25T02:30:56.842Z,95015.13
2022-12-25T02:33:39.389Z,95020.34
2022-12-25T02:35:41.961Z,95015.81
2022-12-25T02:37:57.581Z,95011.41
2022-12-25T02:40:02.294Z,95018.69
2022-12-25T02:42:08.490Z,95020.50
2022-12-25T02:44:33.783Z,95009.13
2022-12-25T02:46:54.072Z,95013.34
2022-12-25T02:49:18.019Z,95015.16
2022-12-25T02:51:40.535Z,95018.16
2022-12-25T02:54:00.712Z,95018.16
2022-12-25T02:56:20.908Z,95027.50
2022-12-25T02:58:43.112Z,95018.56
2022-12-25T03:01:07.981Z,95021.59
2022-12-25T03:03:29.971Z,95030.25
2022-12-25T03:05:51.303Z,95029.41
2022-12-25T03:07:53.428Z,95032.03
2022-12-25T03:10:23.218Z,95033.00
2022-12-25T03:12:51.080Z,95042.06
2022-12-25T03:15:11.288Z,95032.16
2022-12-25T03:17:13.085Z,95042.34
2022-12-25T03:19:33.691Z,95044.13
2022-12-25T03:21:54.234Z,95055.53
2022-12-25T03:24:18.568Z,95050.72
2022-12-25T03:26:39.143Z,95054.13
2022-12-25T03:28:40.868Z,95054.72
2022-12-25T03:31:11.566Z,95049.50
2022-12-25T03:33:45.285Z,95061.03
2022-12-25T03:36:04.228Z,95054.69
2022-12-25T03:38:50.480Z,95056.34
2022-12-25T03:41:46.271Z,95048.94
2022-12-25T03:44:13.319Z,95043.84
2022-12-25T03:46:35.453Z,95050.28
2022-12-25T03:48:59.935Z,95057.16
2022-12-25T03:51:24.668Z,95065.53
2022-12-25T03:53:48.754Z,95068.13
2022-12-25T03:56:09.827Z,95061.25
2022-12-25T03:58:38.179Z,95065.13
2022-12-25T04:00:58.293Z,95062.91
2022-12-25T04:03:18.421Z,95064.53
2022-12-25T04:05:39.051Z,95062.50
2022-12-25T04:07:59.444Z,95077.88
2022-12-25T04:10:19.843Z,95083.78
2022-12-25T04:12:39.850Z,95084.72
2022-12-25T04:15:00.385Z,95084.84
2022-12-25T04:17:20.859Z,95081.72
2022-12-25T04:19:41.295Z,95084.44
2022-12-25T04:22:01.548Z,95077.81
2022-12-25T04:24:21.967Z,95084.84
2022-12-25T04:26:42.462Z,95085.94
2022-12-25T04:29:02.809Z,95095.44
2022-12-25T04:31:23.412Z,95103.56
2022-12-25T04:33:43.935Z,95102.41
2022-12-25T04:36:08.300Z,95105.94
2022-12-25T04:38:09.988Z,95111.56
2022-12-25T04:40:11.869Z,95122.41
2022-12-25T04:42:13.717Z,95114.22
2022-12-25T04:44:15.579Z,95117.53
2022-12-25T04:46:17.405Z,95132.31
2022-12-25T04:48:19.021Z,95135.44
2022-12-25T04:50:20.719Z,95138.91
2022-12-25T04:52:22.435Z,95138.72
2022-12-25T04:54:24.156Z,95133.38
2022-12-25T04:56:25.903Z,95132.00
2022-12-25T04:58:27.625Z,95139.81
2022-12-25T05:00:29.254Z,95138.72
2022-12-25T05:02:31.770Z,95136.13
2022-12-25T05:04:33.776Z,95136.22
2022-12-25T05:06:35.494Z,95134.16
2022-12-25T05:08:37.437Z,95136.63
2022-12-25T05:10:40.497Z,95131.34
2022-12-25T05:12:42.316Z,95137.44
2022-12-25T05:14:44.103Z,95131.59
2022-12-25T05:16:45.880Z,95133.31
2022-12-25T05:18:51.231Z,95134.94
2022-12-25T05:20:55.720Z,95132.22
2022-12-25T05:22:57.468Z,95139.22
2022-12-25T05:25:00.447Z,95137.66
2022-12-25T05:27:02.058Z,95138.50
2022-12-25T05:29:03.898Z,95137.94
2022-12-25T05:31:05.703Z,95133.31
2022-12-25T05:33:07.582Z,95141.81
2022-12-25T05:35:09.749Z,95148.97
2022-12-25T05:37:11.463Z,95149.56
2022-12-25T05:39:13.169Z,95143.63
2022-12-25T05:41:15.037Z,95145.47
2022-12-25T05:43:16.770Z,95143.66
2022-12-25T05:45:18.538Z,95150.94
2022-12-25T05:47:20.570Z,95151.78
2022-12-25T05:49:22.235Z,95149.06
2022-12-25T05:51:23.998Z,95150.47
2022-12-25T05:53:25.733Z,95149.63
2022-12-25T05:55:27.461Z,95163.25
2022-12-25T05:57:29.849Z,95160.88
2022-12-25T05:59:33.123Z,95157.75
2022-12-25T06:01:35.033Z,95160.94
2022-12-25T06:03:36.829Z,95166.69
2022-12-25T06:05:39.899Z,95178.00
2022-12-25T06:07:41.602Z,95175.50
2022-12-25T06:09:43.419Z,95180.44
2022-12-25T06:11:45.463Z,95167.28
2022-12-25T06:13:50.978Z,95175.13
2022-12-25T06:15:52.663Z,95178.81
2022-12-25T06:17:54.656Z,95180.44
2022-12-25T06:19:56.336Z,95182.94
2022-12-25T06:21:58.135Z,95197.09
2022-12-25T06:24:00.782Z,95190.78
2022-12-25T06:26:07.126Z,95189.03
2022-12-25T06:28:09.000Z,95194.66
2022-12-25T06:30:10.997Z,95197.69
2022-12-25T06:32:12.620Z,95196.50
2022-12-25T06:34:16.716Z,95197.31
2022-12-25T06:36:21.052Z,95196.09
2022-12-25T06:38:22.697Z,95200.31
2022-12-25T06:40:24.435Z,95200.97
2022-12-25T06:42:26.398Z,95210.13
2022-12-25T06:44:28.137Z,95206.63
2022-12-25T06:46:30.472Z,95210.28
2022-12-25T06:48:36.079Z,95210.75
2022-12-25T06:50:43.669Z,95226.06
2022-12-25T06:52:46.080Z,95226.06
2022-12-25T06:54:47.763Z,95228.97
2022-12-25T06:56:50.016Z,95229.25
2022-12-25T06:58:57.387Z,95228.28
2022-12-25T07:00:59.265Z,95239.16
2022-12-25T07:03:01.191Z,95232.00
2022-12-25T07:05:04.231Z,95249.06
2022-12-25T07:07:09.169Z,95254.72
2022-12-25T07:09:11.241Z,95249.44
2022-12-25T07:11:13.054Z,95256.47
2022-12-25T07:13:14.778Z,95250.03
2022-12-25T07:15:16.586Z,95258.25
2022-12-25T07:17:19.662Z,95256.34
2022-12-25T07:19:21.278Z,95259.13
2022-12-25T07:21:22.916Z,95255.81
2022-12-25T07:23:24.697Z,95265.16
2022-12-25T07:25:27.351Z,95264.88
2022-12-25T07:27:31.522Z,95260.19
2022-12-25T07:29:33.217Z,95265.16
2022-12-25T07:31:35.249Z,95257.19
2022-12-25T07:33:36.967Z,95277.00
2022-12-25T07:35:38.861Z,95268.03
2022-12-25T07:37:40.485Z,95279.19
2022-12-25T07:39:42.169Z,95271.63
2022-12-25T07:41:44.469Z,95277.41
2022-12-25T07:43:50.116Z,95292.13
2022-12-25T07:45:59.290Z,95296.25
2022-12-25T07:48:05.153Z,95300.09
2022-12-25T07:50:09.758Z,95295.47
2022-12-25T07:52:11.635Z,95291.56
2022-12-25T07:54:13.245Z,95310.31
2022-12-25T07:56:20.345Z,95303.56
2022-12-25T07:58:23.591Z,95306.88
2022-12-25T08:00:29.818Z,95302.06
2022-12-25T08:02:31.699Z,95304.53
2022-12-25T08:04:33.571Z,95306.31
2022-12-25T08:06:35.889Z,95311.41
2022-12-25T08:08:38.551Z,95316.63
2022-12-25T08:10:46.432Z,95326.00
2022-12-25T08:12:48.115Z,95319.41
2022-12-25T08:14:49.821Z,95310.56
2022-12-25T08:16:51.610Z,95323.66
2022-12-25T08:18:53.838Z,95313.19
2022-12-25T08:20:55.735Z,95312.34
2022-12-25T08:22:57.401Z,95314.81
2022-12-25T08:24:59.059Z,95312.56
2022-12-25T08:27:00.774Z,95312.69
2022-12-25T08:29:02.621Z,95321.69
2022-12-25T08:31:09.381Z,95301.25
2022-12-25T08:33:11.058Z,95298.09
2022-12-25T08:35:13.025Z,95305.66
2022-12-25T08:37:14.757Z,95296.50
2022-12-25T08:39:16.461Z,95307.78
2022-12-25T08:41:18.273Z,95309.25
2022-12-25T08:43:20.006Z,95321.88
2022-12-25T08:45:21.684Z,95314.78
2022-12-25T08:47:23.319Z,95318.97
2022-12-25T08:49:27.539Z,95330.09
2022-12-25T08:51:29.553Z,95324.69
2022-12-25T08:53:31.271Z,95329.22
2022-12-25T08:55:33.329Z,95325.47
2022-12-25T08:57:35.022Z,95308.84
2022-12-25T08:59:36.631Z,95322.06
2022-12-25T09:01:38.444Z,95318.63
2022-12-25T09:03:40.261Z,95318.94
2022-12-25T09:05:41.971Z,95321.66
2022-12-25T09:07:43.744Z,95319.03
2022-12-25T09:09:45.647Z,95323.53
2022-12-25T09:11:49.402Z,95319.41
2022-12-25T09:13:51.111Z,95311.84
2022-12-25T09:15:53.513Z,95322.22
2022-12-25T09:17:55.223Z,95324.13
2022-12-25T09:19:56.976Z,95318.38
2022-12-25T09:21:58.709Z,95316.88
2022-12-25T09:24:00.347Z,95309.38
2022-12-25T09:26:03.269Z,95319.56
2022-12-25T09:28:05.065Z,95319.03
2022-12-25T09:30:07.324Z,95312.66
2022-12-25T09:32:09.819Z,95316.78
2022-12-25T09:34:17.091Z,95315.69
2022-12-25T09:36:23.564Z,95308.47
2022-12-25T09:38:25.906Z,95319.97
2022-12-25T09:40:30.564Z,95312.38
2022-12-25T09:42:34.491Z,95303.22
2022-12-25T09:44:43.084Z,95300.97
2022-12-25T09:46:51.748Z,95306.97
2022-12-25T09:49:32.269Z,95304.03
2022-12-25T09:51:35.873Z,95305.19
2022-12-25T09:53:40.402Z,95305.94
2022-12-25T09:56:02.177Z,95294.91
2022-12-25T09:58:12.675Z,95302.47
2022-12-25T10:00:16.625Z,95296.28
2022-12-25T10:02:43.382Z,95293.41
2022-12-25T10:05:17.736Z,95292.25
2022-12-25T10:07:46.788Z,95287.84
2022-12-25T10:10:30.794Z,95287.19
2022-12-25T10:12:43.272Z,95298.00
2022-12-25T10:15:10.019Z,95303.81
2022-12-25T10:17:53.092Z,95297.66
2022-12-25T10:20:18.815Z,95289.56
2022-12-25T10:22:27.945Z,95291.31
2022-12-25T10:24:53.253Z,95286.41
2022-12-25T10:26:56.050Z,95290.81
2022-12-25T10:29:09.712Z,95295.56
2022-12-25T10:31:23.627Z,95287.56
2022-12-25T10:33:25.629Z,95279.78
2022-12-25T10:35:29.150Z,95279.59
2022-12-25T10:37:30.773Z,95289.50
2022-12-25T10:39:32.523Z,95287.16
2022-12-25T10:41:59.039Z,95291.69
2022-12-25T10:44:01.214Z,95290.41
2022-12-25T10:46:09.959Z,95294.59
2022-12-25T10:48:26.210Z,95292.81
2022-12-25T10:50:28.758Z,95309.06
2022-12-25T10:52:30.436Z,95294.97
2022-12-25T10:54:35.700Z,95284.38
2022-12-25T10:56:37.376Z,95293.00
2022-12-25T10:58:38.964Z,95286.78
2022-12-25T11:00:40.904Z,95289.91
2022-12-25T11:02:42.663Z,95282.09
2022-12-25T11:04:44.713Z,95286.63
2022-12-25T11:06:56.884Z,95291.25
2022-12-25T11:09:01.138Z,95283.56
2022-12-25T11:11:06.606Z,95288.84
2022-12-25T11:13:19.337Z,95290.69
2022-12-25T11:15:40.872Z,95283.34
2022-12-25T11:17:48.744Z,95280.50
2022-12-25T11:19:59.067Z,95285.75
2022-12-25T11:22:02.110Z,95286.03
2022-12-25T11:24:22.199Z,95300.13
2022-12-25T11:26:24.051Z,95295.94
2022-12-25T11:28:27.542Z,95307.47
2022-12-25T11:30:30.367Z,95292.88
2022-12-25T11:32:37.764Z,95291.06
2022-12-25T11:34:47.618Z,95296.59
2022-12-25T11:36:50.967Z,95294.38
2022-12-25T11:38:52.770Z,95294.06
2022-12-25T11:41:01.711Z,95291.66
2022-12-25T11:43:10.206Z,95304.38
2022-12-25T11:45:13.135Z,95308.63
2022-12-25T11:47:23.905Z,95307.47
2022-12-25T11:49:25.627Z,95298.97
2022-12-25T11:51:32.849Z,95289.34
2022-12-25T11:54:20.723Z,95295.28
2022-12-25T11:56:25.222Z,95302.22
2022-12-25T11:58:35.852Z,95298.94
2022-12-25T12:00:38.000Z,95292.38
2022-12-25T12:02:45.970Z,95316.00
2022-12-25T12:04:50.005Z,95295.50
2022-12-25T12:06:55.874Z,95303.00
2022-12-25T12:09:05.613Z,95306.75
2022-12-25T12:11:41.309Z,95294.31
2022-12-25T12:13:52.196Z,95294.91
2022-12-25T12:15:53.963Z,95294.25
2022-12-25T12:17:55.984Z,95287.63
2022-12-25T12:19:59.010Z,95298.34
2022-12-25T12:22:02.978Z,95299.69
2022-12-25T12:24:14.536Z,95295.88
2022-12-25T12:26:21.217Z,95303.09
2022-12-25T12:28:26.935Z,95290.69
2022-12-25T12:30:32.479Z,95308.63
2022-12-25T12:32:34.117Z,95314.25
2022-12-25T12:34:42.626Z,95306.66
2022-12-25T12:36:44.442Z,95312.69
2022-12-25T12:38:46.157Z,95311.63
2022-12-25T12:40:59.908Z,95312.16
2022-12-25T12:43:02.096Z,95327.97
2022-12-25T12:45:27.051Z,95318.63
2022-12-25T12:47:28.721Z,95311.53
2022-12-25T12:49:32.995Z,95315.16
2022-12-25T12:51:36.624Z,95320.53
2022-12-25T12:53:40.487Z,95324.88
2022-12-25T12:55:42.101Z,95326.47
2022-12-25T12:57:43.761Z,95327.31
2022-12-25T12:59:46.963Z,95320.16
2022-12-25T13:01:56.081Z,95327.44
2022-12-25T13:04:36.287Z,95332.19
2022-12-25T13:06:48.681Z,95326.56
2022-12-25T13:09:18.689Z,95329.56
2022-12-25T13:11:23.578Z,95314.91
2022-12-25T13:13:28.632Z,95332.28
2022-12-25T13:15:35.374Z,95331.16
2022-12-25T13:17:37.405Z,95333.00
2022-12-25T13:19:42.511Z,95317.81
2022-12-25T13:21:56.263Z,95318.97
2022-12-25T13:24:03.751Z,95313.25
2022-12-25T13:26:17.108Z,95321.97
2022-12-25T13:28:24.834Z,95316.34
2022-12-25T13:30:26.962Z,95316.34
2022-12-25T13:32:30.192Z,95328.03
2022-12-25T13:34:40.579Z,95329.44
2022-12-25T13:36:42.263Z,95331.06
2022-12-25T13:38:49.547Z,95322.47
2022-12-25T13:41:10.681Z,95323.53
2022-12-25T13:43:12.329Z,95327.59
2022-12-25T13:45:13.997Z,95332.47
2022-12-25T13:47:23.178Z,95329.22
2022-12-25T13:49:24.959Z,95329.16
2022-12-25T13:51:27.260Z,95331.66
2022-12-25T13:53:29.329Z,95334.97
2022-12-25T13:55:31.069Z,95336.38
2022-12-25T13:57:38.080Z,95339.59
2022-12-25T13:59:39.957Z,95340.50
2022-12-25T14:01:45.316Z,95344.09
2022-12-25T14:03:47.667Z,95341.31
2022-12-25T14:06:00.996Z,95339.00
2022-12-25T14:08:05.097Z,95337.09
2022-12-25T14:10:07.369Z,95336.59
2022-12-25T14:12:12.865Z,95337.78
2022-12-25T14:14:23.193Z,95340.81
2022-12-25T14:16:26.076Z,95338.63
2022-12-25T14:18:29.017Z,95339.50
2022-12-25T14:20:41.140Z,95339.59
2022-12-25T14:22:42.817Z,95339.97
2022-12-25T14:24:44.571Z,95345.06
2022-12-25T14:26:46.266Z,95338.84
2022-12-25T14:28:49.634Z,95335.84
2022-12-25T14:30:51.637Z,95332.25
2022-12-25T14:32:54.080Z,95348.03
2022-12-25T14:34:59.138Z,95348.03
2022-12-25T14:37:01.827Z,95353.38
2022-12-25T14:39:07.068Z,95351.44
2022-12-25T14:41:24.217Z,95347.69
2022-12-25T14:43:28.785Z,95346.19
2022-12-25T14:45:38.872Z,95351.56
2022-12-25T14:47:51.973Z,95352.56
2022-12-25T14:49:54.712Z,95348.22
2022-12-25T14:51:56.409Z,95352.78
2022-12-25T14:54:03.539Z,95358.84
2022-12-25T14:56:07.079Z,95346.69
2022-12-25T14:58:22.467Z,95341.88
2022-12-25T15:00:31.778Z,95350.50
2022-12-25T15:02:44.923Z,95352.91
2022-12-25T15:04:47.142Z,95356.63
2022-12-25T15:06:55.516Z,95362.75
2022-12-25T15:08:59.720Z,95353.25
2022-12-25T15:11:03.180Z,95344.16
2022-12-25T15:13:05.861Z,95341.66
2022-12-25T15:15:07.920Z,95354.09
2022-12-25T15:17:20.676Z,95354.94
2022-12-25T15:19:31.750Z,95348.63
2022-12-25T15:21:37.776Z,95372.38
2022-12-25T15:23:39.388Z,95351.97
2022-12-25T15:25:41.064Z,95362.34
2022-12-25T15:27:42.714Z,95361.66
2022-12-25T15:30:09.069Z,95370.34
2022-12-25T15:32:13.872Z,95366.66
2022-12-25T15:34:21.831Z,95369.53
2022-12-25T15:36:24.696Z,95370.53
2022-12-25T15:38:26.571Z,95370.53
2022-12-25T15:40:28.290Z,95375.22
2022-12-25T15:42:30.861Z,95379.63
2022-12-25T15:44:32.816Z,95382.13
2022-12-25T15:46:35.050Z,95380.94
2022-12-25T15:48:36.692Z,95383.81
2022-12-25T15:50:39.683Z,95371.97
2022-12-25T15:52:41.401Z,95381.56
2022-12-25T15:54:43.062Z,95388.34
2022-12-25T15:56:46.564Z,95388.31
2022-12-25T15:58:48.223Z,95391.91
2022-12-25T16:00:50.784Z,95397.97
2022-12-25T16:02:53.631Z,95397.84
2022-12-25T16:04:55.542Z,95388.75
2022-12-25T16:06:57.421Z,95392.22
2022-12-25T16:08:59.125Z,95395.28
2022-12-25T16:11:00.749Z,95398.84
2022-12-25T16:13:02.686Z,95404.94
2022-12-25T16:15:04.992Z,95394.59
2022-12-25T16:17:06.985Z,95395.78
2022-12-25T16:19:08.700Z,95397.03
2022-12-25T16:21:15.677Z,95404.50
2022-12-25T16:23:17.434Z,95394.41
2022-12-25T16:25:19.893Z,95406.16
2022-12-25T16:27:22.025Z,95404.25
2022-12-25T16:29:23.832Z,95398.41
2022-12-25T16:31:25.656Z,95405.19
2022-12-25T16:33:28.298Z,95405.88
2022-12-25T16:35:30.019Z,95407.13
2022-12-25T16:37:31.905Z,95405.06
2022-12-25T16:39:33.757Z,95402.00
2022-12-25T16:41:35.421Z,95404.78
2022-12-25T16:43:37.137Z,95400.91
2022-12-25T16:45:40.064Z,95406.81
2022-12-25T16:47:42.195Z,95410.97
2022-12-25T16:49:44.186Z,95405.47
2022-12-25T16:51:45.847Z,95414.28
2022-12-25T16:53:48.068Z,95418.97
2022-12-25T16:55:49.833Z,95409.72
2022-12-25T16:57:51.534Z,95430.00
2022-12-25T16:59:53.292Z,95422.00
2022-12-25T17:01:55.112Z,95431.78
2022-12-25T17:04:01.644Z,95433.28
2022-12-25T17:06:04.662Z,95439.22
2022-12-25T17:08:06.348Z,95443.38
2022-12-25T17:10:09.005Z,95437.84
2022-12-25T17:12:10.814Z,95438.13
2022-12-25T17:14:12.473Z,95440.34
2022-12-25T17:16:23.199Z,95433.72
2022-12-25T17:18:24.917Z,95450.66
2022-12-25T17:20:26.576Z,95446.09
2022-12-25T17:22:28.224Z,95449.94
2022-12-25T17:24:30.100Z,95451.63
2022-12-25T17:26:32.635Z,95450.91
2022-12-25T17:28:34.845Z,95449.97
2022-12-25T17:30:36.513Z,95456.13
2022-12-25T17:32:38.353Z,95462.22
2022-12-25T17:34:40.131Z,95463.03
2022-12-25T17:36:41.925Z,95477.22
2022-12-25T17:38:44.096Z,95466.75
2022-12-25T17:40:46.058Z,95466.22
2022-12-25T17:42:47.692Z,95467.44
2022-12-25T17:44:49.444Z,95467.03
2022-12-25T17:46:51.335Z,95477.94
2022-12-25T17:48:55.126Z,95465.38
2022-12-25T17:51:03.948Z,95483.69
2022-12-25T17:53:06.466Z,95475.00
2022-12-25T17:55:08.644Z,95477.34
2022-12-25T17:57:10.409Z,95467.72
2022-12-25T17:59:18.198Z,95474.47
2022-12-25T18:01:21.080Z,95470.47
2022-12-25T18:03:23.818Z,95468.81
2022-12-25T18:05:25.631Z,95471.44
2022-12-25T18:07:27.391Z,95466.19
2022-12-25T18:09:29.430Z,95468.38
2022-12-25T18:11:33.264Z,95474.03
2022-12-25T18:13:34.975Z,95477.34
2022-12-25T18:15:39.907Z,95474.34
2022-12-25T18:17:42.170Z,95473.94
2022-12-25T18:20:03.964Z,95475.34
2022-12-25T18:22:05.643Z,95475.31
2022-12-25T18:24:08.378Z,95476.91
2022-12-25T18:26:14.171Z,95469.38
2022-12-25T18:28:16.113Z,95467.09
2022-12-25T18:30:17.944Z,95469.84
2022-12-25T18:32:24.860Z,95466.72
2022-12-25T18:34:29.421Z,95467.69
2022-12-25T18:36:31.335Z,95469.84
2022-12-25T18:38:33.704Z,95470.50
2022-12-25T18:40:45.339Z,95475.59
2022-12-25T18:42:52.283Z,95470.88
2022-12-25T18:44:55.464Z,95477.44
2022-12-25T18:46:57.148Z,95474.28
2022-12-25T18:48:58.845Z,95477.47
2022-12-25T18:51:05.100Z,95472.94
2022-12-25T18:53:07.491Z,95483.56
2022-12-25T18:55:09.811Z,95479.56
2022-12-25T18:57:11.856Z,95476.41
2022-12-25T18:59:13.568Z,95475.34
2022-12-25T19:01:20.949Z,95475.34
2022-12-25T19:03:22.868Z,95478.94
2022-12-25T19:05:25.313Z,95484.13
2022-12-25T19:07:26.985Z,95479.19
2022-12-25T19:09:28.735Z,95478.22
2022-12-25T19:11:30.685Z,95474.50
2022-12-25T19:13:32.361Z,95481.41
2022-12-25T19:15:35.737Z,95485.66
2022-12-25T19:17:37.509Z,95484.81
2022-12-25T19:19:39.352Z,95483.44
2022-12-25T19:21:41.465Z,95493.50
2022-12-25T19:23:43.554Z,95485.50
2022-12-25T19:25:45.675Z,95487.00
2022-12-25T19:27:47.357Z,95488.41
2022-12-25T19:29:49.313Z,95488.97
2022-12-25T19:31:51.253Z,95494.19
2022-12-25T19:33:53.148Z,95488.94
2022-12-25T19:36:02.577Z,95496.50
2022-12-25T19:38:04.400Z,95504.47
2022-12-25T19:40:07.125Z,95499.22
2022-12-25T19:42:08.787Z,95490.75
2022-12-25T19:44:10.813Z,95498.06
2022-12-25T19:46:29.939Z,95498.19
2022-12-25T19:48:32.834Z,95505.91
2022-12-25T19:50:34.566Z,95511.16
2022-12-25T19:52:36.240Z,95507.56
2022-12-25T19:54:38.061Z,95503.28
2022-12-25T19:56:40.082Z,95506.84
2022-12-25T19:58:41.932Z,95490.22
2022-12-25T20:00:43.947Z,95485.81
2022-12-25T20:02:45.759Z,95488.31
2022-12-25T20:04:47.742Z,95484.41
2022-12-25T20:06:49.732Z,95482.31
2022-12-25T20:08:53.826Z,95484.28
2022-12-25T20:10:55.491Z,95474.94
2022-12-25T20:12:57.200Z,95478.88
2022-12-25T20:14:58.999Z,95482.44
2022-12-25T20:17:00.757Z,95473.25
2022-12-25T20:19:02.495Z,95479.00
2022-12-25T20:21:07.310Z,95472.56
2022-12-25T20:23:09.121Z,95469.13
2022-12-25T20:25:11.515Z,95470.34
2022-12-25T20:27:13.440Z,95466.75
2022-12-25T20:29:16.968Z,95472.44
2022-12-25T20:31:30.246Z,95478.22
2022-12-25T20:33:31.924Z,95473.03
2022-12-25T20:35:33.899Z,95475.03
2022-12-25T20:37:35.554Z,95484.03
2022-12-25T20:39:38.752Z,95490.66
2022-12-25T20:41:40.983Z,95483.34
2022-12-25T20:43:45.485Z,95482.00
2022-12-25T20:45:50.470Z,95481.78
2022-12-25T20:47:52.090Z,95488.75
2022-12-25T20:49:54.537Z,95487.31
2022-12-25T20:51:59.851Z,95486.16
2022-12-25T20:54:09.480Z,95490.19
2022-12-25T20:56:13.515Z,95491.50
2022-12-25T20:58:16.960Z,95494.78
2022-12-25T21:00:18.821Z,95505.31
2022-12-25T21:02:34.117Z,95505.75
2022-12-25T21:04:38.013Z,95501.84
2022-12-25T21:06:39.715Z,95510.00
2022-12-25T21:08:41.500Z,95507.63
2022-12-25T21:10:44.369Z,95501.31
2022-12-25T21:12:46.057Z,95508.06
2022-12-25T21:14:47.709Z,95514.69
2022-12-25T21:16:50.258Z,95523.22
2022-12-25T21:18:53.507Z,95509.91
2022-12-25T21:20:57.406Z,95508.69
2022-12-25T21:22:58.912Z,95503.88
2022-12-25T21:25:00.668Z,95509.00
2022-12-25T21:27:02.421Z,95512.94
2022-12-25T21:29:04.609Z,95517.19
2022-12-25T21:31:07.885Z,95506.91
2022-12-25T21:33:31.210Z,95510.22
2022-12-25T21:35:36.746Z,95510.78
2022-12-25T21:37:38.479Z,95511.88
2022-12-25T21:39:40.384Z,95511.16
2022-12-25T21:41:42.188Z,95520.44
2022-12-25T21:43:43.923Z,95522.50
2022-12-25T21:45:45.737Z,95519.81
2022-12-25T21:48:01.831Z,95519.47
2022-12-25T21:50:23.632Z,95514.63
2022-12-25T21:52:25.472Z,95517.34
2022-12-25T21:54:27.482Z,95515.19
2022-12-25T21:56:36.003Z,95514.84
2022-12-25T21:58:40.132Z,95515.19
2022-12-25T22:00:41.781Z,95503.91
2022-12-25T22:02:43.585Z,95499.41
2022-12-25T22:04:45.273Z,95501.78
2022-12-25T22:07:05.999Z,95493.47
2022-12-25T22:09:08.992Z,95488.47
2022-12-25T22:11:30.646Z,95490.59
2022-12-25T22:13:50.771Z,95496.63
2022-12-25T22:16:11.483Z,95497.22
2022-12-25T22:18:33.173Z,95500.44
2022-12-25T22:20:38.591Z,95503.97
2022-12-25T22:22:40.388Z,95504.94
2022-12-25T22:24:42.355Z,95494.03
2022-12-25T22:26:44.674Z,95506.03
2022-12-25T22:28:46.342Z,95506.38
2022-12-25T22:30:47.993Z,95500.44
2022-12-25T22:32:49.865Z,95504.84
2022-12-25T22:34:52.083Z,95504.28
2022-12-25T22:36:54.276Z,95502.16
2022-12-25T22:38:56.015Z,95503.72
2022-12-25T22:40:57.894Z,95498.97
2022-12-25T22:42:59.611Z,95497.69
2022-12-25T22:45:01.741Z,95497.78
2022-12-25T22:47:03.885Z,95499.94
2022-12-25T22:49:05.661Z,95510.38
2022-12-25T22:51:07.393Z,95506.81
2022-12-25T22:53:09.131Z,95501.13
2022-12-25T22:55:11.070Z,95514.41
2022-12-25T22:57:12.817Z,95512.03
2022-12-25T22:59:16.563Z,95517.38
2022-12-25T23:01:18.321Z,95509.19
2022-12-25T23:03:20.125Z,95507.06
2022-12-25T23:05:21.913Z,95517.72
2022-12-25T23:07:23.536Z,95507.16
2022-12-25T23:09:28.023Z,95517.47
2022-12-25T23:11:29.987Z,95515.25
2022-12-25T23:13:50.746Z,95517.03
2022-12-25T23:15:52.433Z,95511.31
2022-12-25T23:18:12.977Z,95517.97
2022-12-25T23:20:34.086Z,95510.63
2022-12-25T23:22:54.601Z,95507.66
2022-12-25T23:25:15.981Z,95502.00
2022-12-25T23:27:17.932Z,95500.56
2022-12-25T23:29:45.589Z,95502.56
2022-12-25T23:31:53.770Z,95498.63
2022-12-25T23:33:55.755Z,95510.38
2022-12-25T23:35:57.562Z,95506.09
2022-12-25T23:37:59.260Z,95508.94
2022-12-25T23:40:01.349Z,95511.56
2022-12-25T23:42:03.224Z,95516.88
2022-12-25T23:44:05.000Z,95517.47
2022-12-25T23:46:06.746Z,95523.75
2022-12-25T23:48:08.544Z,95531.09
2022-12-25T23:50:10.558Z,95535.09
2022-12-25T23:52:13.100Z,95529.19
2022-12-25T23:54:17.099Z,95532.41
2022-12-25T23:56:18.855Z,95535.09
2022-12-25T23:58:20.786Z,95526.19
